ENBO Airport Information

Runway Information
Runway 07 Length 11136 ft width 148 ft
Elevation 17 ft Threshold 1969 ft Heading 78
Runway 25 Length 11136 ft Width 148 ft
Elevation 39 ft Threshold 0 ft Heading 258
Airport Frequencies
Type A/D Name APP/DEP Frequency 119.7 MHZ
Type ATIS Name ATIS Frequency 123.9 MHZ
Type TWR Name TWR Frequency 118.1 MHZ
Airport Navaids
Type VOR-DME Name Bodo Frequency 117200 KHZ
Type TACAN Name Bodo Frequency 110800 KHZ
Type NDB Name Fleinvaer Frequency 374 KHZ
Type NDB Name Fauske Frequency 326 KHZ
Type NDB Name Stott Frequency 317 KHZ
Airport Weather Information & NOTAM
ADDS - METARS form results

(1105 UTC 08 December 2019)
Data provider http://aviationweather.gov/metar/data/
 
METAR text: ENBO 081050Z 08008KT 9999 FEW020 SCT040 M02/M04 Q0979 NOSIG
Conditions at: ENBO (BODO VI (CIV/MIL, NO) observed 1050 UTC 08 December 2019
Temperature: -2.0°C (28°F)
Dewpoint: -4.0°C (25°F) [RH = 86%]
Pressure (altimeter): 28.91 inches Hg (979.0 mb)
Winds: from the E (80 degrees) at 9 MPH (8 knots; 4.1 m/s)
Visibility: 6 or more miles (10+ km)
Ceiling: at least 12,000 feet AGL
Clouds: few clouds at 2000 feet AGL
scattered clouds at 4000 feet AGL
Weather: no significant weather observed at this time

METAR text: ENBO 081020Z 06007KT 9999 FEW025 M01/M04 Q0979 NOSIG
Conditions at: ENBO (BODO VI (CIV/MIL, NO) observed 1020 UTC 08 December 2019
Temperature: -1.0°C (30°F)
Dewpoint: -4.0°C (25°F) [RH = 80%]
Pressure (altimeter): 28.91 inches Hg (979.0 mb)
Winds: from the ENE (60 degrees) at 8 MPH (7 knots; 3.6 m/s)
Visibility: 6 or more miles (10+ km)
Ceiling: at least 12,000 feet AGL
Clouds: few clouds at 2500 feet AGL
Weather: no significant weather observed at this time

Forecast for: COR
Text: TAF COR ENBO 0806/0906 08005KT 9999 FEW012 SCT030
Forecast period: 0600 to 1100 UTC 08 December 2019
Forecast type: FROM: standard forecast or significant change
Winds: from the E (80 degrees) at 6 MPH (5 knots; 2.6 m/s)
Visibility: 6 or more miles 10+ km)
Ceiling: at least 12,000 feet AGL
Clouds: few clouds at 1200 feet AGL
scattered clouds at 3000 feet AGL
Weather: no significant weather forecast for this period
Text: BECMG 0811/0814 08015KT
Forecast period: 1100 UTC 08 December 2019 to 0600 UTC 09 December 2019
Forecast type: BECOMING: Conditions expected to become as follows by 1400 UTC 08 December 2019
Winds: from the E (80 degrees) at 17 MPH (15 knots; 7.7 m/s)
Visibility: 6 or more miles 10+ km)
Ceiling: at least 12,000 feet AGL
Clouds: few clouds at 1200 feet AGL
scattered clouds at 3000 feet AGL
Weather: no significant weather forecast for this period